sensor_id;sensor_type;location;lat;lon;timestamp;temperature;humidity
58153;DHT22;43967;51.634;5.566;2022-07-01T00:01:44;24.20;61.00
58153;DHT22;43967;51.634;5.566;2022-07-01T00:06:45;24.20;60.90
58153;DHT22;43967;51.634;5.566;2022-07-01T00:11:46;24.10;60.80
58153;DHT22;43967;51.634;5.566;2022-07-01T00:16:51;24.20;61.50
58153;DHT22;43967;51.634;5.566;2022-07-01T00:21:52;24.20;60.80
58153;DHT22;43967;51.634;5.566;2022-07-01T00:26:53;24.20;60.80
58153;DHT22;43967;51.634;5.566;2022-07-01T00:31:54;24.10;60.70
58153;DHT22;43967;51.634;5.566;2022-07-01T00:36:55;24.10;60.70
58153;DHT22;43967;51.634;5.566;2022-07-01T00:42:06;24.10;60.70
58153;DHT22;43967;51.634;5.566;2022-07-01T00:47:11;24.10;60.60
58153;DHT22;43967;51.634;5.566;2022-07-01T00:52:14;24.10;60.70
58153;DHT22;43967;51.634;5.566;2022-07-01T00:57:15;24.10;60.60
58153;DHT22;43967;51.634;5.566;2022-07-01T01:02:16;24.10;60.60
58153;DHT22;43967;51.634;5.566;2022-07-01T01:07:17;24.10;60.60
58153;DHT22;43967;51.634;5.566;2022-07-01T01:12:18;24.10;60.60
58153;DHT22;43967;51.634;5.566;2022-07-01T01:17:19;24.10;60.70
58153;DHT22;43967;51.634;5.566;2022-07-01T01:22:20;24.10;60.70
58153;DHT22;43967;51.634;5.566;2022-07-01T01:27:22;24.10;60.60
58153;DHT22;43967;51.634;5.566;2022-07-01T01:32:23;24.10;60.60
58153;DHT22;43967;51.634;5.566;2022-07-01T01:37:24;24.10;60.60
58153;DHT22;43967;51.634;5.566;2022-07-01T01:42:25;24.10;60.60
58153;DHT22;43967;51.634;5.566;2022-07-01T01:47:26;24.10;60.60
58153;DHT22;43967;51.634;5.566;2022-07-01T01:52:27;24.00;60.50
58153;DHT22;43967;51.634;5.566;2022-07-01T01:57:28;24.10;60.60
58153;DHT22;43967;51.634;5.566;2022-07-01T02:02:29;24.10;60.50
58153;DHT22;43967;51.634;5.566;2022-07-01T02:07:30;24.00;60.40
58153;DHT22;43967;51.634;5.566;2022-07-01T02:12:31;24.10;60.50
58153;DHT22;43967;51.634;5.566;2022-07-01T02:17:32;24.10;60.50
58153;DHT22;43967;51.634;5.566;2022-07-01T02:22:33;24.00;60.50
58153;DHT22;43967;51.634;5.566;2022-07-01T02:27:34;24.10;60.50
58153;DHT22;43967;51.634;5.566;2022-07-01T02:32:36;24.00;60.50
58153;DHT22;43967;51.634;5.566;2022-07-01T02:37:37;24.00;60.50
58153;DHT22;43967;51.634;5.566;2022-07-01T02:42:38;24.00;60.50
58153;DHT22;43967;51.634;5.566;2022-07-01T02:47:40;24.00;60.40
58153;DHT22;43967;51.634;5.566;2022-07-01T02:52:42;24.00;60.40
58153;DHT22;43967;51.634;5.566;2022-07-01T02:57:43;24.00;60.40
58153;DHT22;43967;51.634;5.566;2022-07-01T03:02:45;24.00;60.40
58153;DHT22;43967;51.634;5.566;2022-07-01T03:07:46;24.00;60.40
58153;DHT22;43967;51.634;5.566;2022-07-01T03:12:47;24.00;60.40
58153;DHT22;43967;51.634;5.566;2022-07-01T03:17:48;24.00;60.30
58153;DHT22;43967;51.634;5.566;2022-07-01T03:22:49;24.00;60.40
58153;DHT22;43967;51.634;5.566;2022-07-01T03:27:50;24.00;60.30
58153;DHT22;43967;51.634;5.566;2022-07-01T03:32:51;24.00;60.40
58153;DHT22;43967;51.634;5.566;2022-07-01T03:37:54;24.00;60.30
58153;DHT22;43967;51.634;5.566;2022-07-01T03:42:55;23.90;60.30
58153;DHT22;43967;51.634;5.566;2022-07-01T03:47:57;24.00;60.40
58153;DHT22;43967;51.634;5.566;2022-07-01T03:52:58;23.90;60.30
58153;DHT22;43967;51.634;5.566;2022-07-01T03:57:59;23.90;60.30
58153;DHT22;43967;51.634;5.566;2022-07-01T04:03:00;24.00;60.40
58153;DHT22;43967;51.634;5.566;2022-07-01T04:08:02;23.90;60.30
58153;DHT22;43967;51.634;5.566;2022-07-01T04:13:04;23.90;60.30
58153;DHT22;43967;51.634;5.566;2022-07-01T04:18:05;24.00;60.40
58153;DHT22;43967;51.634;5.566;2022-07-01T04:23:07;23.90;60.30
58153;DHT22;43967;51.634;5.566;2022-07-01T04:28:08;23.90;60.30
58153;DHT22;43967;51.634;5.566;2022-07-01T04:33:09;23.90;60.30
58153;DHT22;43967;51.634;5.566;2022-07-01T04:38:10;23.90;60.40
58153;DHT22;43967;51.634;5.566;2022-07-01T04:43:11;23.90;60.40
58153;DHT22;43967;51.634;5.566;2022-07-01T04:48:12;23.90;60.40
58153;DHT22;43967;51.634;5.566;2022-07-01T04:53:13;23.90;60.40
58153;DHT22;43967;51.634;5.566;2022-07-01T04:58:15;23.90;60.40
58153;DHT22;43967;51.634;5.566;2022-07-01T05:03:16;23.90;60.40
58153;DHT22;43967;51.634;5.566;2022-07-01T05:08:17;23.90;60.40
58153;DHT22;43967;51.634;5.566;2022-07-01T05:13:18;23.90;60.40
58153;DHT22;43967;51.634;5.566;2022-07-01T05:18:19;23.90;60.40
58153;DHT22;43967;51.634;5.566;2022-07-01T05:23:20;23.90;60.40
58153;DHT22;43967;51.634;5.566;2022-07-01T05:28:21;23.90;60.40
58153;DHT22;43967;51.634;5.566;2022-07-01T05:33:22;23.90;60.40
58153;DHT22;43967;51.634;5.566;2022-07-01T05:38:23;23.80;60.50
58153;DHT22;43967;51.634;5.566;2022-07-01T05:43:24;23.80;61.10
58153;DHT22;43967;51.634;5.566;2022-07-01T05:48:25;23.80;60.40
58153;DHT22;43967;51.634;5.566;2022-07-01T05:53:26;23.80;60.40
58153;DHT22;43967;51.634;5.566;2022-07-01T05:58:27;23.90;60.90
58153;DHT22;43967;51.634;5.566;2022-07-01T06:03:29;23.90;60.30
58153;DHT22;43967;51.634;5.566;2022-07-01T06:08:30;23.90;60.40
58153;DHT22;43967;51.634;5.566;2022-07-01T06:13:31;23.90;60.40
58153;DHT22;43967;51.634;5.566;2022-07-01T06:18:32;24.00;60.60
58153;DHT22;43967;51.634;5.566;2022-07-01T06:23:33;24.00;60.50
58153;DHT22;43967;51.634;5.566;2022-07-01T06:28:34;24.00;60.70
58153;DHT22;43967;51.634;5.566;2022-07-01T06:33:35;24.00;60.90
58153;DHT22;43967;51.634;5.566;2022-07-01T06:38:36;24.00;60.90
58153;DHT22;43967;51.634;5.566;2022-07-01T06:43:37;24.10;61.00
58153;DHT22;43967;51.634;5.566;2022-07-01T06:48:38;24.10;60.90
58153;DHT22;43967;51.634;5.566;2022-07-01T06:53:40;24.10;60.90
58153;DHT22;43967;51.634;5.566;2022-07-01T06:58:41;24.20;60.90
58153;DHT22;43967;51.634;5.566;2022-07-01T07:03:43;24.00;58.40
58153;DHT22;43967;51.634;5.566;2022-07-01T07:08:44;22.70;56.90
58153;DHT22;43967;51.634;5.566;2022-07-01T07:13:45;22.30;57.20
58153;DHT22;43967;51.634;5.566;2022-07-01T07:18:50;22.20;58.30
58153;DHT22;43967;51.634;5.566;2022-07-01T07:23:51;22.10;58.60
58153;DHT22;43967;51.634;5.566;2022-07-01T07:28:52;21.50;58.10
58153;DHT22;43967;51.634;5.566;2022-07-01T07:33:53;21.30;58.60
58153;DHT22;43967;51.634;5.566;2022-07-01T07:38:54;21.50;58.40
58153;DHT22;43967;51.634;5.566;2022-07-01T07:43:55;21.20;58.60
58153;DHT22;43967;51.634;5.566;2022-07-01T07:48:57;21.00;58.70
58153;DHT22;43967;51.634;5.566;2022-07-01T07:53:58;21.20;59.30
58153;DHT22;43967;51.634;5.566;2022-07-01T07:58:59;21.20;58.70
58153;DHT22;43967;51.634;5.566;2022-07-01T08:04:00;21.10;59.10
58153;DHT22;43967;51.634;5.566;2022-07-01T08:09:02;21.30;58.20
58153;DHT22;43967;51.634;5.566;2022-07-01T08:14:03;21.20;57.90
58153;DHT22;43967;51.634;5.566;2022-07-01T08:19:04;21.10;58.70
58153;DHT22;43967;51.634;5.566;2022-07-01T08:24:06;21.50;57.30
58153;DHT22;43967;51.634;5.566;2022-07-01T08:29:07;21.60;56.10
58153;DHT22;43967;51.634;5.566;2022-07-01T08:34:08;21.70;54.90
58153;DHT22;43967;51.634;5.566;2022-07-01T08:39:09;21.60;55.70
58153;DHT22;43967;51.634;5.566;2022-07-01T08:44:10;21.60;55.70
58153;DHT22;43967;51.634;5.566;2022-07-01T08:49:12;21.70;55.60
58153;DHT22;43967;51.634;5.566;2022-07-01T08:54:13;21.80;54.50
58153;DHT22;43967;51.634;5.566;2022-07-01T08:59:27;22.00;53.30
58153;DHT22;43967;51.634;5.566;2022-07-01T09:04:28;22.10;54.30
58153;DHT22;43967;51.634;5.566;2022-07-01T09:09:37;22.20;53.20
58153;DHT22;43967;51.634;5.566;2022-07-01T09:14:39;22.20;53.30
58153;DHT22;43967;51.634;5.566;2022-07-01T09:19:40;22.40;53.20
58153;DHT22;43967;51.634;5.566;2022-07-01T09:24:42;22.40;53.40
58153;DHT22;43967;51.634;5.566;2022-07-01T09:29:49;22.50;53.40
58153;DHT22;43967;51.634;5.566;2022-07-01T09:34:53;22.40;52.70
58153;DHT22;43967;51.634;5.566;2022-07-01T09:39:56;22.40;52.50
58153;DHT22;43967;51.634;5.566;2022-07-01T09:45:05;22.50;52.90
58153;DHT22;43967;51.634;5.566;2022-07-01T09:50:07;22.50;51.80
58153;DHT22;43967;51.634;5.566;2022-07-01T09:55:08;22.40;52.20
58153;DHT22;43967;51.634;5.566;2022-07-01T10:00:10;22.50;52.00
58153;DHT22;43967;51.634;5.566;2022-07-01T10:05:15;22.60;51.60
58153;DHT22;43967;51.634;5.566;2022-07-01T10:10:57;22.60;51.30
58153;DHT22;43967;51.634;5.566;2022-07-01T10:15:59;22.70;51.50
58153;DHT22;43967;51.634;5.566;2022-07-01T10:21:02;22.70;51.10
58153;DHT22;43967;51.634;5.566;2022-07-01T10:26:04;22.80;50.30
58153;DHT22;43967;51.634;5.566;2022-07-01T10:31:07;22.90;50.70
58153;DHT22;43967;51.634;5.566;2022-07-01T10:41:23;22.90;50.40
58153;DHT22;43967;51.634;5.566;2022-07-01T10:46:40;22.90;49.50
58153;DHT22;43967;51.634;5.566;2022-07-01T10:51:53;22.90;49.10
58153;DHT22;43967;51.634;5.566;2022-07-01T10:56:54;22.90;49.10
58153;DHT22;43967;51.634;5.566;2022-07-01T11:01:56;23.00;49.30
58153;DHT22;43967;51.634;5.566;2022-07-01T11:06:57;23.00;48.90
58153;DHT22;43967;51.634;5.566;2022-07-01T11:12:00;23.00;48.40
58153;DHT22;43967;51.634;5.566;2022-07-01T11:17:02;23.10;48.90
58153;DHT22;43967;51.634;5.566;2022-07-01T11:22:04;23.20;49.10
58153;DHT22;43967;51.634;5.566;2022-07-01T11:27:06;23.10;48.90
58153;DHT22;43967;51.634;5.566;2022-07-01T11:32:08;22.90;50.30
58153;DHT22;43967;51.634;5.566;2022-07-01T11:37:10;23.00;48.80
58153;DHT22;43967;51.634;5.566;2022-07-01T11:42:11;23.10;49.20
58153;DHT22;43967;51.634;5.566;2022-07-01T11:47:22;23.10;49.40
58153;DHT22;43967;51.634;5.566;2022-07-01T11:52:24;23.20;49.20
58153;DHT22;43967;51.634;5.566;2022-07-01T11:57:26;23.20;50.00
58153;DHT22;43967;51.634;5.566;2022-07-01T12:02:28;23.10;49.70
58153;DHT22;43967;51.634;5.566;2022-07-01T12:07:30;23.20;50.10
58153;DHT22;43967;51.634;5.566;2022-07-01T12:18:11;23.20;49.50
58153;DHT22;43967;51.634;5.566;2022-07-01T12:23:13;23.20;49.80
58153;DHT22;43967;51.634;5.566;2022-07-01T12:28:31;23.30;50.10
58153;DHT22;43967;51.634;5.566;2022-07-01T12:33:34;23.30;49.70
58153;DHT22;43967;51.634;5.566;2022-07-01T12:38:35;23.40;49.60
58153;DHT22;43967;51.634;5.566;2022-07-01T12:43:36;23.40;50.00
58153;DHT22;43967;51.634;5.566;2022-07-01T12:48:48;23.50;50.00
58153;DHT22;43967;51.634;5.566;2022-07-01T12:53:49;23.60;50.00
58153;DHT22;43967;51.634;5.566;2022-07-01T12:58:50;23.60;49.90
58153;DHT22;43967;51.634;5.566;2022-07-01T13:03:51;23.60;49.60
58153;DHT22;43967;51.634;5.566;2022-07-01T13:08:52;23.70;49.50
58153;DHT22;43967;51.634;5.566;2022-07-01T13:13:55;23.70;49.50
58153;DHT22;43967;51.634;5.566;2022-07-01T13:18:56;23.70;49.60
58153;DHT22;43967;51.634;5.566;2022-07-01T13:23:57;23.80;49.70
58153;DHT22;43967;51.634;5.566;2022-07-01T13:28:58;23.80;49.70
58153;DHT22;43967;51.634;5.566;2022-07-01T13:33:59;23.80;49.70
58153;DHT22;43967;51.634;5.566;2022-07-01T13:39:00;23.80;50.10
58153;DHT22;43967;51.634;5.566;2022-07-01T13:44:01;23.90;50.10
58153;DHT22;43967;51.634;5.566;2022-07-01T13:49:02;23.80;49.70
58153;DHT22;43967;51.634;5.566;2022-07-01T13:54:03;23.80;49.90
58153;DHT22;43967;51.634;5.566;2022-07-01T13:59:04;23.80;50.00
58153;DHT22;43967;51.634;5.566;2022-07-01T14:04:06;23.80;50.10
58153;DHT22;43967;51.634;5.566;2022-07-01T14:09:07;23.90;50.30
58153;DHT22;43967;51.634;5.566;2022-07-01T14:14:08;24.00;50.30
58153;DHT22;43967;51.634;5.566;2022-07-01T14:19:09;24.00;50.40
58153;DHT22;43967;51.634;5.566;2022-07-01T14:24:10;24.10;50.30
58153;DHT22;43967;51.634;5.566;2022-07-01T14:29:11;24.10;50.30
58153;DHT22;43967;51.634;5.566;2022-07-01T14:34:12;24.10;50.40
58153;DHT22;43967;51.634;5.566;2022-07-01T14:39:13;24.10;50.40
58153;DHT22;43967;51.634;5.566;2022-07-01T14:44:16;24.10;50.40
58153;DHT22;43967;51.634;5.566;2022-07-01T14:49:17;24.10;50.40
58153;DHT22;43967;51.634;5.566;2022-07-01T14:54:18;24.20;50.60
58153;DHT22;43967;51.634;5.566;2022-07-01T14:59:19;24.10;50.80
58153;DHT22;43967;51.634;5.566;2022-07-01T15:04:20;24.10;50.90
58153;DHT22;43967;51.634;5.566;2022-07-01T15:09:21;24.10;51.00
58153;DHT22;43967;51.634;5.566;2022-07-01T15:14:22;24.10;50.40
58153;DHT22;43967;51.634;5.566;2022-07-01T15:19:24;23.90;50.60
58153;DHT22;43967;51.634;5.566;2022-07-01T15:24:26;23.60;51.20
58153;DHT22;43967;51.634;5.566;2022-07-01T15:29:27;23.50;51.40
58153;DHT22;43967;51.634;5.566;2022-07-01T15:34:28;23.50;51.40
58153;DHT22;43967;51.634;5.566;2022-07-01T15:39:29;23.20;51.60
58153;DHT22;43967;51.634;5.566;2022-07-01T15:44:31;23.20;51.80
58153;DHT22;43967;51.634;5.566;2022-07-01T15:49:32;23.10;52.00
58153;DHT22;43967;51.634;5.566;2022-07-01T15:54:33;23.10;52.20
58153;DHT22;43967;51.634;5.566;2022-07-01T15:59:34;23.10;52.60
58153;DHT22;43967;51.634;5.566;2022-07-01T16:04:35;23.10;52.80
58153;DHT22;43967;51.634;5.566;2022-07-01T16:09:39;23.20;52.50
58153;DHT22;43967;51.634;5.566;2022-07-01T16:14:42;23.30;52.30
58153;DHT22;43967;51.634;5.566;2022-07-01T16:19:45;23.40;52.50
58153;DHT22;43967;51.634;5.566;2022-07-01T16:24:48;23.40;52.20
58153;DHT22;43967;51.634;5.566;2022-07-01T16:29:50;23.40;51.90
58153;DHT22;43967;51.634;5.566;2022-07-01T16:34:51;23.50;52.20
58153;DHT22;43967;51.634;5.566;2022-07-01T16:39:52;23.60;51.70
58153;DHT22;43967;51.634;5.566;2022-07-01T16:45:01;23.60;52.30
58153;DHT22;43967;51.634;5.566;2022-07-01T16:50:12;23.70;52.60
58153;DHT22;43967;51.634;5.566;2022-07-01T16:55:15;23.70;52.10
58153;DHT22;43967;51.634;5.566;2022-07-01T17:00:18;23.80;52.20
58153;DHT22;43967;51.634;5.566;2022-07-01T17:05:20;23.70;51.30
58153;DHT22;43967;51.634;5.566;2022-07-01T17:10:21;23.80;51.90
58153;DHT22;43967;51.634;5.566;2022-07-01T17:15:23;23.80;51.30
58153;DHT22;43967;51.634;5.566;2022-07-01T17:20:24;23.70;50.30
58153;DHT22;43967;51.634;5.566;2022-07-01T17:25:36;23.70;50.40
58153;DHT22;43967;51.634;5.566;2022-07-01T17:31:10;23.60;50.40
58153;DHT22;43967;51.634;5.566;2022-07-01T17:36:22;23.60;50.60
58153;DHT22;43967;51.634;5.566;2022-07-01T17:41:42;23.50;50.60
58153;DHT22;43967;51.634;5.566;2022-07-01T17:46:44;23.50;50.80
58153;DHT22;43967;51.634;5.566;2022-07-01T17:51:45;23.50;51.00
58153;DHT22;43967;51.634;5.566;2022-07-01T17:56:48;23.50;51.20
58153;DHT22;43967;51.634;5.566;2022-07-01T18:01:49;23.50;51.40
58153;DHT22;43967;51.634;5.566;2022-07-01T18:06:50;23.50;51.60
58153;DHT22;43967;51.634;5.566;2022-07-01T18:12:07;23.40;51.90
58153;DHT22;43967;51.634;5.566;2022-07-01T18:27:57;23.50;52.40
58153;DHT22;43967;51.634;5.566;2022-07-01T18:33:04;23.60;52.50
58153;DHT22;43967;51.634;5.566;2022-07-01T18:38:07;23.70;52.40
58153;DHT22;43967;51.634;5.566;2022-07-01T18:43:08;23.80;52.30
58153;DHT22;43967;51.634;5.566;2022-07-01T18:48:09;23.80;52.30
58153;DHT22;43967;51.634;5.566;2022-07-01T18:53:10;23.90;52.40
58153;DHT22;43967;51.634;5.566;2022-07-01T18:58:12;23.90;52.40
58153;DHT22;43967;51.634;5.566;2022-07-01T19:03:13;23.90;52.40
58153;DHT22;43967;51.634;5.566;2022-07-01T19:08:14;23.90;52.50
58153;DHT22;43967;51.634;5.566;2022-07-01T19:13:15;23.90;53.40
58153;DHT22;43967;51.634;5.566;2022-07-01T19:18:16;23.90;52.60
58153;DHT22;43967;51.634;5.566;2022-07-01T19:23:17;23.90;52.80
58153;DHT22;43967;51.634;5.566;2022-07-01T19:28:18;23.90;52.90
58153;DHT22;43967;51.634;5.566;2022-07-01T19:33:19;23.90;53.00
58153;DHT22;43967;51.634;5.566;2022-07-01T19:38:20;24.00;53.30
58153;DHT22;43967;51.634;5.566;2022-07-01T19:43:21;23.90;53.30
58153;DHT22;43967;51.634;5.566;2022-07-01T19:48:22;23.90;53.40
58153;DHT22;43967;51.634;5.566;2022-07-01T19:53:23;23.90;53.40
58153;DHT22;43967;51.634;5.566;2022-07-01T19:58:24;23.90;53.50
58153;DHT22;43967;51.634;5.566;2022-07-01T20:03:26;23.90;53.50
58153;DHT22;43967;51.634;5.566;2022-07-01T20:08:27;23.90;53.50
58153;DHT22;43967;51.634;5.566;2022-07-01T20:13:28;23.90;53.60
58153;DHT22;43967;51.634;5.566;2022-07-01T20:18:29;23.90;53.70
58153;DHT22;43967;51.634;5.566;2022-07-01T20:23:30;23.90;53.80
58153;DHT22;43967;51.634;5.566;2022-07-01T20:28:31;23.90;53.90
58153;DHT22;43967;51.634;5.566;2022-07-01T20:33:32;23.90;54.00
58153;DHT22;43967;51.634;5.566;2022-07-01T20:38:33;23.90;54.00
58153;DHT22;43967;51.634;5.566;2022-07-01T20:43:35;23.90;54.10
58153;DHT22;43967;51.634;5.566;2022-07-01T20:48:36;23.90;54.20
58153;DHT22;43967;51.634;5.566;2022-07-01T20:53:37;23.90;54.30
58153;DHT22;43967;51.634;5.566;2022-07-01T20:58:38;23.90;54.30
58153;DHT22;43967;51.634;5.566;2022-07-01T21:03:39;23.80;54.20
58153;DHT22;43967;51.634;5.566;2022-07-01T21:08:40;23.80;54.30
58153;DHT22;43967;51.634;5.566;2022-07-01T21:13:41;23.90;54.30
58153;DHT22;43967;51.634;5.566;2022-07-01T21:18:42;23.90;54.50
58153;DHT22;43967;51.634;5.566;2022-07-01T21:23:43;23.80;54.40
58153;DHT22;43967;51.634;5.566;2022-07-01T21:28:44;23.80;54.50
58153;DHT22;43967;51.634;5.566;2022-07-01T21:33:45;23.80;54.60
58153;DHT22;43967;51.634;5.566;2022-07-01T21:38:46;23.80;54.70
58153;DHT22;43967;51.634;5.566;2022-07-01T21:43:49;23.80;54.70
58153;DHT22;43967;51.634;5.566;2022-07-01T21:48:52;23.80;54.70
58153;DHT22;43967;51.634;5.566;2022-07-01T21:53:55;23.80;54.80
58153;DHT22;43967;51.634;5.566;2022-07-01T21:58:57;23.80;54.80
58153;DHT22;43967;51.634;5.566;2022-07-01T22:03:59;23.80;54.80
58153;DHT22;43967;51.634;5.566;2022-07-01T22:09:03;23.80;55.00
58153;DHT22;43967;51.634;5.566;2022-07-01T22:14:07;23.80;55.00
58153;DHT22;43967;51.634;5.566;2022-07-01T22:19:09;23.80;55.10
58153;DHT22;43967;51.634;5.566;2022-07-01T22:24:13;23.70;55.10
58153;DHT22;43967;51.634;5.566;2022-07-01T22:29:15;23.70;55.10
58153;DHT22;43967;51.634;5.566;2022-07-01T22:34:18;23.80;55.20
58153;DHT22;43967;51.634;5.566;2022-07-01T22:39:19;23.80;55.20
58153;DHT22;43967;51.634;5.566;2022-07-01T22:44:20;23.70;55.10
58153;DHT22;43967;51.634;5.566;2022-07-01T22:59:59;23.70;55.10
58153;DHT22;43967;51.634;5.566;2022-07-01T23:05:04;23.70;55.20
58153;DHT22;43967;51.634;5.566;2022-07-01T23:10:07;23.70;55.20
58153;DHT22;43967;51.634;5.566;2022-07-01T23:15:10;23.70;55.20
58153;DHT22;43967;51.634;5.566;2022-07-01T23:20:12;23.70;55.20
58153;DHT22;43967;51.634;5.566;2022-07-01T23:25:14;23.70;55.20
58153;DHT22;43967;51.634;5.566;2022-07-01T23:30:16;23.70;55.30
58153;DHT22;43967;51.634;5.566;2022-07-01T23:35:18;23.60;55.20
58153;DHT22;43967;51.634;5.566;2022-07-01T23:40:19;23.60;55.20
58153;DHT22;43967;51.634;5.566;2022-07-01T23:45:21;23.60;55.30
58153;DHT22;43967;51.634;5.566;2022-07-01T23:50:22;23.60;55.20
58153;DHT22;43967;51.634;5.566;2022-07-01T23:55:23;23.60;55.30
